sensor_id;sensor_type;location;lat;lon;timestamp;temperature;humidity
324;DHT22;149;51.094;17.002;2022-11-27T00:00:46;7.20;99.90
324;DHT22;149;51.094;17.002;2022-11-27T00:03:13;7.20;99.90
324;DHT22;149;51.094;17.002;2022-11-27T00:10:34;7.40;99.90
324;DHT22;149;51.094;17.002;2022-11-27T00:13:01;7.50;99.90
324;DHT22;149;51.094;17.002;2022-11-27T00:22:55;7.80;99.90
324;DHT22;149;51.094;17.002;2022-11-27T00:25:22;7.90;99.90
324;DHT22;149;51.094;17.002;2022-11-27T00:27:49;8.00;99.90
324;DHT22;149;51.094;17.002;2022-11-27T00:30:16;7.90;99.90
324;DHT22;149;51.094;17.002;2022-11-27T00:32:43;7.80;99.90
324;DHT22;149;51.094;17.002;2022-11-27T00:35:13;7.80;99.90
324;DHT22;149;51.094;17.002;2022-11-27T00:37:40;7.90;99.90
324;DHT22;149;51.094;17.002;2022-11-27T00:40:07;7.90;99.90
324;DHT22;149;51.094;17.002;2022-11-27T00:42:34;8.00;99.90
324;DHT22;149;51.094;17.002;2022-11-27T00:45:01;8.00;99.90
324;DHT22;149;51.094;17.002;2022-11-27T00:47:28;7.80;99.90
324;DHT22;149;51.094;17.002;2022-11-27T00:49:55;8.60;99.90
324;DHT22;149;51.094;17.002;2022-11-27T00:52:22;8.00;99.90
324;DHT22;149;51.094;17.002;2022-11-27T00:54:49;8.00;99.90
324;DHT22;149;51.094;17.002;2022-11-27T00:57:17;8.90;99.90
324;DHT22;149;51.094;17.002;2022-11-27T00:59:44;7.90;99.90
324;DHT22;149;51.094;17.002;2022-11-27T01:02:11;7.40;99.90
324;DHT22;149;51.094;17.002;2022-11-27T01:04:38;7.30;99.90
324;DHT22;149;51.094;17.002;2022-11-27T01:07:06;7.40;99.90
324;DHT22;149;51.094;17.002;2022-11-27T01:09:33;7.20;99.90
324;DHT22;149;51.094;17.002;2022-11-27T01:12:00;7.40;99.90
324;DHT22;149;51.094;17.002;2022-11-27T01:14:27;7.60;99.90
324;DHT22;149;51.094;17.002;2022-11-27T01:16:54;7.60;99.90
324;DHT22;149;51.094;17.002;2022-11-27T01:19:21;7.70;99.90
324;DHT22;149;51.094;17.002;2022-11-27T01:21:48;7.40;99.90
324;DHT22;149;51.094;17.002;2022-11-27T01:24:15;8.00;99.90
324;DHT22;149;51.094;17.002;2022-11-27T01:26:43;7.50;99.90
324;DHT22;149;51.094;17.002;2022-11-27T01:29:10;7.50;99.90
324;DHT22;149;51.094;17.002;2022-11-27T01:31:37;7.50;99.90
324;DHT22;149;51.094;17.002;2022-11-27T01:34:07;7.00;99.90
324;DHT22;149;51.094;17.002;2022-11-27T01:36:34;6.80;99.90
324;DHT22;149;51.094;17.002;2022-11-27T01:39:02;6.70;99.90
324;DHT22;149;51.094;17.002;2022-11-27T01:41:33;6.80;99.90
324;DHT22;149;51.094;17.002;2022-11-27T01:47:12;6.60;99.90
324;DHT22;149;51.094;17.002;2022-11-27T01:49:45;6.90;99.90
324;DHT22;149;51.094;17.002;2022-11-27T01:52:18;7.10;99.90
324;DHT22;149;51.094;17.002;2022-11-27T01:55:00;7.30;99.90
324;DHT22;149;51.094;17.002;2022-11-27T01:57:38;7.30;99.90
324;DHT22;149;51.094;17.002;2022-11-27T02:00:09;7.50;99.90
324;DHT22;149;51.094;17.002;2022-11-27T02:02:40;7.50;99.90
324;DHT22;149;51.094;17.002;2022-11-27T02:05:09;8.60;99.90
324;DHT22;149;51.094;17.002;2022-11-27T02:07:36;7.40;99.90
324;DHT22;149;51.094;17.002;2022-11-27T02:10:05;7.40;99.90
324;DHT22;149;51.094;17.002;2022-11-27T02:12:58;7.30;99.90
324;DHT22;149;51.094;17.002;2022-11-27T02:20:49;7.60;99.90
324;DHT22;149;51.094;17.002;2022-11-27T02:23:40;9.10;99.90
324;DHT22;149;51.094;17.002;2022-11-27T02:26:47;7.60;99.90
324;DHT22;149;51.094;17.002;2022-11-27T02:29:22;7.60;99.90
324;DHT22;149;51.094;17.002;2022-11-27T02:32:14;7.70;99.90
324;DHT22;149;51.094;17.002;2022-11-27T02:34:50;7.80;99.90
324;DHT22;149;51.094;17.002;2022-11-27T02:40:29;7.70;99.90
324;DHT22;149;51.094;17.002;2022-11-27T02:43:16;7.50;99.90
324;DHT22;149;51.094;17.002;2022-11-27T02:45:50;7.70;99.90
324;DHT22;149;51.094;17.002;2022-11-27T02:48:21;7.50;99.90
324;DHT22;149;51.094;17.002;2022-11-27T02:50:49;7.50;99.90
324;DHT22;149;51.094;17.002;2022-11-27T02:53:22;8.60;99.90
324;DHT22;149;51.094;17.002;2022-11-27T02:55:52;7.50;99.90
324;DHT22;149;51.094;17.002;2022-11-27T02:58:22;8.00;99.90
324;DHT22;149;51.094;17.002;2022-11-27T03:00:54;8.00;99.90
324;DHT22;149;51.094;17.002;2022-11-27T03:03:28;8.10;99.90
324;DHT22;149;51.094;17.002;2022-11-27T03:06:00;8.40;99.90
324;DHT22;149;51.094;17.002;2022-11-27T03:09:05;8.30;99.90
324;DHT22;149;51.094;17.002;2022-11-27T03:11:25;7.40;99.90
324;DHT22;149;51.094;17.002;2022-11-27T03:13:54;8.00;99.90
324;DHT22;149;51.094;17.002;2022-11-27T03:19:28;7.30;99.90
324;DHT22;149;51.094;17.002;2022-11-27T03:21:58;6.90;99.90
324;DHT22;149;51.094;17.002;2022-11-27T03:24:27;6.70;99.90
324;DHT22;149;51.094;17.002;2022-11-27T03:26:57;6.90;99.90
324;DHT22;149;51.094;17.002;2022-11-27T03:29:32;7.20;99.90
324;DHT22;149;51.094;17.002;2022-11-27T03:32:02;7.30;99.90
324;DHT22;149;51.094;17.002;2022-11-27T03:34:30;7.30;99.90
324;DHT22;149;51.094;17.002;2022-11-27T03:36:57;7.30;99.90
324;DHT22;149;51.094;17.002;2022-11-27T03:39:25;7.60;99.90
324;DHT22;149;51.094;17.002;2022-11-27T03:42:05;7.60;99.90
324;DHT22;149;51.094;17.002;2022-11-27T03:45:24;8.00;99.90
324;DHT22;149;51.094;17.002;2022-11-27T03:56:05;7.90;99.90
324;DHT22;149;51.094;17.002;2022-11-27T03:59:13;7.90;99.90
324;DHT22;149;51.094;17.002;2022-11-27T04:01:35;7.90;99.90
324;DHT22;149;51.094;17.002;2022-11-27T04:04:02;7.90;99.90
324;DHT22;149;51.094;17.002;2022-11-27T04:06:29;8.00;99.90
324;DHT22;149;51.094;17.002;2022-11-27T04:08:56;8.00;99.90
324;DHT22;149;51.094;17.002;2022-11-27T04:11:23;8.00;99.90
324;DHT22;149;51.094;17.002;2022-11-27T04:13:50;8.30;99.90
324;DHT22;149;51.094;17.002;2022-11-27T04:16:20;8.00;99.90
324;DHT22;149;51.094;17.002;2022-11-27T04:18:47;8.00;99.90
324;DHT22;149;51.094;17.002;2022-11-27T04:21:14;8.00;99.90
324;DHT22;149;51.094;17.002;2022-11-27T04:23:43;7.60;99.90
324;DHT22;149;51.094;17.002;2022-11-27T04:26:10;7.40;99.90
324;DHT22;149;51.094;17.002;2022-11-27T04:28:37;7.00;99.90
324;DHT22;149;51.094;17.002;2022-11-27T04:31:04;7.20;99.90
324;DHT22;149;51.094;17.002;2022-11-27T04:33:31;7.30;99.90
324;DHT22;149;51.094;17.002;2022-11-27T04:35:58;7.50;99.90
324;DHT22;149;51.094;17.002;2022-11-27T04:38:25;7.50;99.90
324;DHT22;149;51.094;17.002;2022-11-27T04:40:53;7.70;99.90
324;DHT22;149;51.094;17.002;2022-11-27T04:43:19;7.80;99.90
324;DHT22;149;51.094;17.002;2022-11-27T04:45:46;7.80;99.90
324;DHT22;149;51.094;17.002;2022-11-27T04:48:13;7.80;99.90
324;DHT22;149;51.094;17.002;2022-11-27T04:50:40;7.80;99.90
324;DHT22;149;51.094;17.002;2022-11-27T04:53:07;7.60;99.90
324;DHT22;149;51.094;17.002;2022-11-27T04:55:34;7.70;99.90
324;DHT22;149;51.094;17.002;2022-11-27T04:58:02;7.90;99.90
324;DHT22;149;51.094;17.002;2022-11-27T05:00:29;8.20;99.90
324;DHT22;149;51.094;17.002;2022-11-27T05:02:56;8.00;99.90
324;DHT22;149;51.094;17.002;2022-11-27T05:05:23;7.90;99.90
324;DHT22;149;51.094;17.002;2022-11-27T05:07:50;7.50;99.90
324;DHT22;149;51.094;17.002;2022-11-27T05:10:17;7.60;99.90
324;DHT22;149;51.094;17.002;2022-11-27T05:12:44;7.60;99.90
324;DHT22;149;51.094;17.002;2022-11-27T05:15:11;7.70;99.90
324;DHT22;149;51.094;17.002;2022-11-27T05:17:38;7.70;99.90
324;DHT22;149;51.094;17.002;2022-11-27T05:20:06;7.80;99.90
324;DHT22;149;51.094;17.002;2022-11-27T05:22:33;7.90;99.90
324;DHT22;149;51.094;17.002;2022-11-27T05:25:01;8.10;99.90
324;DHT22;149;51.094;17.002;2022-11-27T05:27:29;8.10;99.90
324;DHT22;149;51.094;17.002;2022-11-27T05:29:55;8.50;99.90
324;DHT22;149;51.094;17.002;2022-11-27T05:32:22;8.30;99.90
324;DHT22;149;51.094;17.002;2022-11-27T05:34:50;8.00;99.90
324;DHT22;149;51.094;17.002;2022-11-27T05:37:18;8.10;99.90
324;DHT22;149;51.094;17.002;2022-11-27T05:39:45;8.20;99.90
324;DHT22;149;51.094;17.002;2022-11-27T05:42:12;8.30;99.90
324;DHT22;149;51.094;17.002;2022-11-27T05:44:39;8.30;99.90
324;DHT22;149;51.094;17.002;2022-11-27T05:47:07;8.20;99.90
324;DHT22;149;51.094;17.002;2022-11-27T05:49:34;8.20;99.90
324;DHT22;149;51.094;17.002;2022-11-27T05:52:01;8.40;99.90
324;DHT22;149;51.094;17.002;2022-11-27T05:54:28;8.10;99.90
324;DHT22;149;51.094;17.002;2022-11-27T05:56:55;8.50;99.90
324;DHT22;149;51.094;17.002;2022-11-27T05:59:22;8.20;99.90
324;DHT22;149;51.094;17.002;2022-11-27T06:01:49;8.10;99.90
324;DHT22;149;51.094;17.002;2022-11-27T06:04:17;8.10;99.90
324;DHT22;149;51.094;17.002;2022-11-27T06:06:44;8.10;99.90
324;DHT22;149;51.094;17.002;2022-11-27T06:09:11;8.00;99.90
324;DHT22;149;51.094;17.002;2022-11-27T06:11:40;7.90;99.90
324;DHT22;149;51.094;17.002;2022-11-27T06:14:08;7.90;99.90
324;DHT22;149;51.094;17.002;2022-11-27T06:16:36;8.00;99.90
324;DHT22;149;51.094;17.002;2022-11-27T06:19:03;7.90;99.90
324;DHT22;149;51.094;17.002;2022-11-27T06:21:30;7.90;99.90
324;DHT22;149;51.094;17.002;2022-11-27T06:23:57;7.90;99.90
324;DHT22;149;51.094;17.002;2022-11-27T06:26:29;8.20;99.90
324;DHT22;149;51.094;17.002;2022-11-27T06:28:57;8.10;99.90
324;DHT22;149;51.094;17.002;2022-11-27T06:31:27;8.10;99.90
324;DHT22;149;51.094;17.002;2022-11-27T06:33:54;8.20;99.90
324;DHT22;149;51.094;17.002;2022-11-27T06:36:26;8.00;99.90
324;DHT22;149;51.094;17.002;2022-11-27T06:38:53;7.90;99.90
324;DHT22;149;51.094;17.002;2022-11-27T06:41:21;7.50;99.90
324;DHT22;149;51.094;17.002;2022-11-27T06:43:50;7.30;99.90
324;DHT22;149;51.094;17.002;2022-11-27T06:46:20;7.20;99.90
324;DHT22;149;51.094;17.002;2022-11-27T06:48:49;7.20;99.90
324;DHT22;149;51.094;17.002;2022-11-27T06:51:19;7.20;99.90
324;DHT22;149;51.094;17.002;2022-11-27T06:53:46;6.80;99.90
324;DHT22;149;51.094;17.002;2022-11-27T06:56:16;7.40;99.90
324;DHT22;149;51.094;17.002;2022-11-27T06:58:44;7.10;99.90
324;DHT22;149;51.094;17.002;2022-11-27T07:01:13;6.80;99.90
324;DHT22;149;51.094;17.002;2022-11-27T07:03:41;6.70;99.90
324;DHT22;149;51.094;17.002;2022-11-27T07:06:11;6.60;99.90
324;DHT22;149;51.094;17.002;2022-11-27T07:08:38;6.30;99.90
324;DHT22;149;51.094;17.002;2022-11-27T07:11:11;6.20;99.90
324;DHT22;149;51.094;17.002;2022-11-27T07:13:39;6.20;99.90
324;DHT22;149;51.094;17.002;2022-11-27T07:16:08;6.10;99.90
324;DHT22;149;51.094;17.002;2022-11-27T07:18:39;6.00;99.90
324;DHT22;149;51.094;17.002;2022-11-27T07:21:07;6.00;99.90
324;DHT22;149;51.094;17.002;2022-11-27T07:23:35;6.10;99.90
324;DHT22;149;51.094;17.002;2022-11-27T07:26:24;6.10;99.90
324;DHT22;149;51.094;17.002;2022-11-27T07:28:53;6.20;99.90
324;DHT22;149;51.094;17.002;2022-11-27T07:31:25;6.10;99.90
324;DHT22;149;51.094;17.002;2022-11-27T07:33:54;6.10;99.90
324;DHT22;149;51.094;17.002;2022-11-27T07:36:27;6.20;99.90
324;DHT22;149;51.094;17.002;2022-11-27T07:38:55;6.10;99.90
324;DHT22;149;51.094;17.002;2022-11-27T07:41:22;6.20;99.90
324;DHT22;149;51.094;17.002;2022-11-27T07:43:49;6.20;99.90
324;DHT22;149;51.094;17.002;2022-11-27T07:46:21;6.50;99.90
324;DHT22;149;51.094;17.002;2022-11-27T07:48:48;6.40;99.90
324;DHT22;149;51.094;17.002;2022-11-27T07:51:19;6.30;99.90
324;DHT22;149;51.094;17.002;2022-11-27T07:53:47;6.50;99.90
324;DHT22;149;51.094;17.002;2022-11-27T07:56:20;6.60;99.90
324;DHT22;149;51.094;17.002;2022-11-27T07:58:48;6.70;99.90
324;DHT22;149;51.094;17.002;2022-11-27T08:01:17;6.80;99.90
324;DHT22;149;51.094;17.002;2022-11-27T08:03:47;6.80;99.90
324;DHT22;149;51.094;17.002;2022-11-27T08:06:18;7.00;99.90
324;DHT22;149;51.094;17.002;2022-11-27T08:08:45;7.00;99.90
324;DHT22;149;51.094;17.002;2022-11-27T08:11:20;7.00;99.90
324;DHT22;149;51.094;17.002;2022-11-27T08:13:49;6.90;99.90
324;DHT22;149;51.094;17.002;2022-11-27T08:16:16;7.00;99.90
324;DHT22;149;51.094;17.002;2022-11-27T08:18:44;7.10;99.90
324;DHT22;149;51.094;17.002;2022-11-27T08:21:12;7.10;99.90
324;DHT22;149;51.094;17.002;2022-11-27T08:23:40;7.50;99.90
324;DHT22;149;51.094;17.002;2022-11-27T08:26:09;7.50;99.90
324;DHT22;149;51.094;17.002;2022-11-27T08:28:36;7.40;99.90
324;DHT22;149;51.094;17.002;2022-11-27T08:31:05;7.40;99.90
324;DHT22;149;51.094;17.002;2022-11-27T08:33:32;7.40;99.90
324;DHT22;149;51.094;17.002;2022-11-27T08:36:01;7.60;99.90
324;DHT22;149;51.094;17.002;2022-11-27T08:38:29;7.50;99.90
324;DHT22;149;51.094;17.002;2022-11-27T08:41:00;7.70;99.90
324;DHT22;149;51.094;17.002;2022-11-27T08:43:30;8.30;99.90
324;DHT22;149;51.094;17.002;2022-11-27T08:45:57;8.60;99.90
324;DHT22;149;51.094;17.002;2022-11-27T08:48:25;8.40;99.90
324;DHT22;149;51.094;17.002;2022-11-27T08:50:52;8.50;99.90
324;DHT22;149;51.094;17.002;2022-11-27T08:53:19;9.10;99.90
324;DHT22;149;51.094;17.002;2022-11-27T08:55:46;8.60;99.90
324;DHT22;149;51.094;17.002;2022-11-27T08:58:13;8.50;99.90
324;DHT22;149;51.094;17.002;2022-11-27T09:00:40;8.30;99.90
324;DHT22;149;51.094;17.002;2022-11-27T09:03:10;8.30;99.90
324;DHT22;149;51.094;17.002;2022-11-27T09:05:41;8.30;99.90
324;DHT22;149;51.094;17.002;2022-11-27T09:08:13;8.60;99.90
324;DHT22;149;51.094;17.002;2022-11-27T09:10:45;8.30;99.90
324;DHT22;149;51.094;17.002;2022-11-27T09:13:13;8.20;99.90
324;DHT22;149;51.094;17.002;2022-11-27T09:15:41;8.00;99.90
324;DHT22;149;51.094;17.002;2022-11-27T09:18:09;8.00;99.90
324;DHT22;149;51.094;17.002;2022-11-27T09:20:35;8.00;99.90
324;DHT22;149;51.094;17.002;2022-11-27T09:23:03;8.10;99.90
324;DHT22;149;51.094;17.002;2022-11-27T09:25:40;8.10;99.90
324;DHT22;149;51.094;17.002;2022-11-27T09:28:07;8.00;99.90
324;DHT22;149;51.094;17.002;2022-11-27T09:30:34;8.10;99.90
324;DHT22;149;51.094;17.002;2022-11-27T09:33:02;7.80;99.90
324;DHT22;149;51.094;17.002;2022-11-27T09:35:29;7.90;99.90
324;DHT22;149;51.094;17.002;2022-11-27T09:37:56;7.70;99.90
324;DHT22;149;51.094;17.002;2022-11-27T09:40:24;7.70;99.90
324;DHT22;149;51.094;17.002;2022-11-27T09:43:15;7.50;99.90
324;DHT22;149;51.094;17.002;2022-11-27T09:45:58;7.40;99.90
324;DHT22;149;51.094;17.002;2022-11-27T09:48:41;7.30;99.90
324;DHT22;149;51.094;17.002;2022-11-27T09:51:30;7.50;99.90
324;DHT22;149;51.094;17.002;2022-11-27T09:54:19;7.50;99.90
324;DHT22;149;51.094;17.002;2022-11-27T09:56:51;7.50;99.90
324;DHT22;149;51.094;17.002;2022-11-27T09:59:21;7.40;99.90
324;DHT22;149;51.094;17.002;2022-11-27T10:01:48;7.70;99.90
324;DHT22;149;51.094;17.002;2022-11-27T10:04:19;7.50;99.90
324;DHT22;149;51.094;17.002;2022-11-27T10:07:22;7.50;99.90
324;DHT22;149;51.094;17.002;2022-11-27T10:10:36;7.60;99.90
324;DHT22;149;51.094;17.002;2022-11-27T10:13:50;7.90;99.90
324;DHT22;149;51.094;17.002;2022-11-27T10:16:30;7.90;99.90
324;DHT22;149;51.094;17.002;2022-11-27T10:21:58;8.50;99.90
324;DHT22;149;51.094;17.002;2022-11-27T10:24:40;7.80;99.90
324;DHT22;149;51.094;17.002;2022-11-27T10:30:20;8.20;99.90
324;DHT22;149;51.094;17.002;2022-11-27T10:32:53;9.40;99.90
324;DHT22;149;51.094;17.002;2022-11-27T10:35:28;8.80;99.90
324;DHT22;149;51.094;17.002;2022-11-27T10:38:05;10.10;99.90
324;DHT22;149;51.094;17.002;2022-11-27T10:41:06;8.80;99.90
324;DHT22;149;51.094;17.002;2022-11-27T10:43:37;8.90;99.90
324;DHT22;149;51.094;17.002;2022-11-27T10:46:13;9.00;99.90
324;DHT22;149;51.094;17.002;2022-11-27T10:48:41;8.50;99.90
324;DHT22;149;51.094;17.002;2022-11-27T10:51:17;8.20;99.90
324;DHT22;149;51.094;17.002;2022-11-27T10:53:46;8.20;99.90
324;DHT22;149;51.094;17.002;2022-11-27T10:59:22;8.30;99.90
324;DHT22;149;51.094;17.002;2022-11-27T11:01:58;8.20;99.90
324;DHT22;149;51.094;17.002;2022-11-27T11:04:28;7.90;99.90
324;DHT22;149;51.094;17.002;2022-11-27T11:07:25;7.80;99.90
324;DHT22;149;51.094;17.002;2022-11-27T11:09:54;7.90;99.90
324;DHT22;149;51.094;17.002;2022-11-27T11:12:22;8.10;99.90
324;DHT22;149;51.094;17.002;2022-11-27T11:14:55;8.20;99.90
324;DHT22;149;51.094;17.002;2022-11-27T11:17:29;8.10;99.90
324;DHT22;149;51.094;17.002;2022-11-27T11:19:56;8.30;99.90
324;DHT22;149;51.094;17.002;2022-11-27T11:22:23;8.00;99.90
324;DHT22;149;51.094;17.002;2022-11-27T11:24:54;8.00;99.90
324;DHT22;149;51.094;17.002;2022-11-27T11:27:26;8.10;99.90
324;DHT22;149;51.094;17.002;2022-11-27T11:29:54;8.40;99.90
324;DHT22;149;51.094;17.002;2022-11-27T11:32:28;8.60;99.90
324;DHT22;149;51.094;17.002;2022-11-27T11:37:32;8.60;99.90
324;DHT22;149;51.094;17.002;2022-11-27T11:42:52;8.50;99.90
324;DHT22;149;51.094;17.002;2022-11-27T11:45:20;8.60;99.90
324;DHT22;149;51.094;17.002;2022-11-27T11:48:02;8.80;99.90
324;DHT22;149;51.094;17.002;2022-11-27T11:50:44;8.80;99.90
324;DHT22;149;51.094;17.002;2022-11-27T11:53:43;8.80;99.90
324;DHT22;149;51.094;17.002;2022-11-27T12:06:57;8.50;99.90
324;DHT22;149;51.094;17.002;2022-11-27T12:12:34;8.50;99.90
324;DHT22;149;51.094;17.002;2022-11-27T12:15:22;8.60;99.90
324;DHT22;149;51.094;17.002;2022-11-27T12:18:07;9.00;99.90
324;DHT22;149;51.094;17.002;2022-11-27T12:21:05;9.00;99.90
324;DHT22;149;51.094;17.002;2022-11-27T12:35:02;8.80;99.90
324;DHT22;149;51.094;17.002;2022-11-27T12:37:58;8.70;99.90
324;DHT22;149;51.094;17.002;2022-11-27T12:43:25;9.10;99.90
324;DHT22;149;51.094;17.002;2022-11-27T12:46:05;9.00;99.90
324;DHT22;149;51.094;17.002;2022-11-27T12:48:45;9.10;99.90
324;DHT22;149;51.094;17.002;2022-11-27T12:51:27;9.00;99.90
324;DHT22;149;51.094;17.002;2022-11-27T12:54:01;9.00;99.90
324;DHT22;149;51.094;17.002;2022-11-27T12:56:34;8.80;99.90
324;DHT22;149;51.094;17.002;2022-11-27T13:01:49;8.60;99.90
324;DHT22;149;51.094;17.002;2022-11-27T13:04:41;8.60;99.90
324;DHT22;149;51.094;17.002;2022-11-27T13:07:17;8.50;99.90
324;DHT22;149;51.094;17.002;2022-11-27T13:13:01;8.50;99.90
324;DHT22;149;51.094;17.002;2022-11-27T13:15:52;8.70;99.90
324;DHT22;149;51.094;17.002;2022-11-27T13:18:34;8.30;99.90
324;DHT22;149;51.094;17.002;2022-11-27T13:21:10;8.30;99.90
324;DHT22;149;51.094;17.002;2022-11-27T13:23:40;8.00;99.90
324;DHT22;149;51.094;17.002;2022-11-27T13:26:20;8.00;99.90
324;DHT22;149;51.094;17.002;2022-11-27T13:28:54;8.10;99.90
324;DHT22;149;51.094;17.002;2022-11-27T13:31:25;8.20;99.90
324;DHT22;149;51.094;17.002;2022-11-27T13:34:02;8.10;99.90
324;DHT22;149;51.094;17.002;2022-11-27T13:36:37;8.20;99.90
324;DHT22;149;51.094;17.002;2022-11-27T13:39:34;8.20;99.90
324;DHT22;149;51.094;17.002;2022-11-27T13:42:21;8.00;99.90
324;DHT22;149;51.094;17.002;2022-11-27T13:45:20;8.10;99.90
324;DHT22;149;51.094;17.002;2022-11-27T13:47:50;7.90;99.90
324;DHT22;149;51.094;17.002;2022-11-27T13:50:19;8.20;99.90
324;DHT22;149;51.094;17.002;2022-11-27T13:53:04;8.70;99.90
324;DHT22;149;51.094;17.002;2022-11-27T13:55:50;7.80;99.90
324;DHT22;149;51.094;17.002;2022-11-27T13:58:32;7.90;99.90
324;DHT22;149;51.094;17.002;2022-11-27T14:01:17;7.70;99.90
324;DHT22;149;51.094;17.002;2022-11-27T14:03:45;7.60;99.90
324;DHT22;149;51.094;17.002;2022-11-27T14:06:27;7.80;99.90
324;DHT22;149;51.094;17.002;2022-11-27T14:08:58;7.90;99.90
324;DHT22;149;51.094;17.002;2022-11-27T14:11:43;7.80;99.90
324;DHT22;149;51.094;17.002;2022-11-27T14:14:20;8.20;99.90
324;DHT22;149;51.094;17.002;2022-11-27T14:17:00;7.60;99.90
324;DHT22;149;51.094;17.002;2022-11-27T14:19:40;7.50;99.90
324;DHT22;149;51.094;17.002;2022-11-27T14:22:40;7.30;99.90
324;DHT22;149;51.094;17.002;2022-11-27T14:25:33;7.50;99.90
324;DHT22;149;51.094;17.002;2022-11-27T14:30:58;7.40;99.90
324;DHT22;149;51.094;17.002;2022-11-27T14:33:29;7.40;99.90
324;DHT22;149;51.094;17.002;2022-11-27T14:35:59;7.30;99.90
324;DHT22;149;51.094;17.002;2022-11-27T14:38:29;7.50;99.90
324;DHT22;149;51.094;17.002;2022-11-27T14:41:19;7.30;99.90
324;DHT22;149;51.094;17.002;2022-11-27T14:44:03;7.20;99.90
324;DHT22;149;51.094;17.002;2022-11-27T14:46:37;7.20;99.90
324;DHT22;149;51.094;17.002;2022-11-27T14:49:05;7.10;99.90
324;DHT22;149;51.094;17.002;2022-11-27T14:51:34;7.00;99.90
324;DHT22;149;51.094;17.002;2022-11-27T14:54:12;7.00;99.90
324;DHT22;149;51.094;17.002;2022-11-27T14:56:43;6.90;99.90
324;DHT22;149;51.094;17.002;2022-11-27T14:59:19;7.00;99.90
324;DHT22;149;51.094;17.002;2022-11-27T15:02:01;6.90;99.90
324;DHT22;149;51.094;17.002;2022-11-27T15:04:35;6.80;99.90
324;DHT22;149;51.094;17.002;2022-11-27T15:07:12;7.20;99.90
324;DHT22;149;51.094;17.002;2022-11-27T15:09:49;6.70;99.90
324;DHT22;149;51.094;17.002;2022-11-27T15:12:22;6.80;99.90
324;DHT22;149;51.094;17.002;2022-11-27T15:17:31;6.90;99.90
324;DHT22;149;51.094;17.002;2022-11-27T15:19:59;6.80;99.90
324;DHT22;149;51.094;17.002;2022-11-27T15:22:28;6.90;99.90
324;DHT22;149;51.094;17.002;2022-11-27T15:25:00;7.60;99.90
324;DHT22;149;51.094;17.002;2022-11-27T15:27:47;6.70;99.90
324;DHT22;149;51.094;17.002;2022-11-27T15:30:18;6.70;99.90
324;DHT22;149;51.094;17.002;2022-11-27T15:32:52;6.60;99.90
324;DHT22;149;51.094;17.002;2022-11-27T15:35:25;7.70;99.90
324;DHT22;149;51.094;17.002;2022-11-27T15:37:59;6.60;99.90
324;DHT22;149;51.094;17.002;2022-11-27T15:40:39;6.70;99.90
324;DHT22;149;51.094;17.002;2022-11-27T15:43:11;6.70;99.90
324;DHT22;149;51.094;17.002;2022-11-27T15:45:39;7.10;99.90
324;DHT22;149;51.094;17.002;2022-11-27T15:48:15;7.40;99.90
324;DHT22;149;51.094;17.002;2022-11-27T15:50:42;6.70;99.90
324;DHT22;149;51.094;17.002;2022-11-27T15:53:17;6.60;99.90
324;DHT22;149;51.094;17.002;2022-11-27T15:55:45;6.50;99.90
324;DHT22;149;51.094;17.002;2022-11-27T15:58:12;6.50;99.90
324;DHT22;149;51.094;17.002;2022-11-27T16:00:41;6.80;99.90
324;DHT22;149;51.094;17.002;2022-11-27T16:03:10;6.80;99.90
324;DHT22;149;51.094;17.002;2022-11-27T16:05:39;6.50;99.90
324;DHT22;149;51.094;17.002;2022-11-27T16:08:06;6.50;99.90
324;DHT22;149;51.094;17.002;2022-11-27T16:10:41;6.60;99.90
324;DHT22;149;51.094;17.002;2022-11-27T16:13:08;6.40;99.90
324;DHT22;149;51.094;17.002;2022-11-27T16:15:37;6.60;99.90
324;DHT22;149;51.094;17.002;2022-11-27T16:18:04;6.60;99.90
324;DHT22;149;51.094;17.002;2022-11-27T16:20:32;6.50;99.90
324;DHT22;149;51.094;17.002;2022-11-27T16:23:00;6.50;99.90
324;DHT22;149;51.094;17.002;2022-11-27T16:25:27;6.40;99.90
324;DHT22;149;51.094;17.002;2022-11-27T16:27:54;6.60;99.90
324;DHT22;149;51.094;17.002;2022-11-27T16:30:28;7.00;99.90
324;DHT22;149;51.094;17.002;2022-11-27T16:32:55;6.20;99.90
324;DHT22;149;51.094;17.002;2022-11-27T16:35:23;6.20;99.90
324;DHT22;149;51.094;17.002;2022-11-27T16:37:51;6.20;99.90
324;DHT22;149;51.094;17.002;2022-11-27T16:40:18;6.40;99.90
324;DHT22;149;51.094;17.002;2022-11-27T16:42:45;6.30;99.90
324;DHT22;149;51.094;17.002;2022-11-27T16:45:12;6.20;99.90
324;DHT22;149;51.094;17.002;2022-11-27T16:47:39;6.40;99.90
324;DHT22;149;51.094;17.002;2022-11-27T16:50:08;6.70;99.90
324;DHT22;149;51.094;17.002;2022-11-27T16:52:35;6.20;99.90
324;DHT22;149;51.094;17.002;2022-11-27T16:55:05;6.50;99.90
324;DHT22;149;51.094;17.002;2022-11-27T16:57:32;6.20;99.90
324;DHT22;149;51.094;17.002;2022-11-27T17:00:02;6.30;99.90
324;DHT22;149;51.094;17.002;2022-11-27T17:02:30;6.20;99.90
324;DHT22;149;51.094;17.002;2022-11-27T17:04:57;6.40;99.90
324;DHT22;149;51.094;17.002;2022-11-27T17:07:24;6.20;99.90
324;DHT22;149;51.094;17.002;2022-11-27T17:09:52;6.20;99.90
324;DHT22;149;51.094;17.002;2022-11-27T17:12:19;6.10;99.90
324;DHT22;149;51.094;17.002;2022-11-27T17:14:46;6.00;99.90
324;DHT22;149;51.094;17.002;2022-11-27T17:17:17;6.10;99.90
324;DHT22;149;51.094;17.002;2022-11-27T17:19:44;6.00;99.90
324;DHT22;149;51.094;17.002;2022-11-27T17:22:12;5.90;99.90
324;DHT22;149;51.094;17.002;2022-11-27T17:24:40;6.00;99.90
324;DHT22;149;51.094;17.002;2022-11-27T17:27:07;6.00;99.90
324;DHT22;149;51.094;17.002;2022-11-27T17:29:34;5.90;99.90
324;DHT22;149;51.094;17.002;2022-11-27T17:32:03;5.90;99.90
324;DHT22;149;51.094;17.002;2022-11-27T17:34:32;5.80;99.90
324;DHT22;149;51.094;17.002;2022-11-27T17:37:01;5.80;99.90
324;DHT22;149;51.094;17.002;2022-11-27T17:39:28;5.80;99.90
324;DHT22;149;51.094;17.002;2022-11-27T17:41:55;5.80;99.90
324;DHT22;149;51.094;17.002;2022-11-27T17:44:22;6.30;99.90
324;DHT22;149;51.094;17.002;2022-11-27T17:46:49;5.90;99.90
324;DHT22;149;51.094;17.002;2022-11-27T17:49:17;6.50;99.90
324;DHT22;149;51.094;17.002;2022-11-27T17:51:45;5.80;99.90
324;DHT22;149;51.094;17.002;2022-11-27T17:54:12;6.40;99.90
324;DHT22;149;51.094;17.002;2022-11-27T17:56:39;5.90;99.90
324;DHT22;149;51.094;17.002;2022-11-27T17:59:06;5.80;99.90
324;DHT22;149;51.094;17.002;2022-11-27T18:01:36;6.00;99.90
324;DHT22;149;51.094;17.002;2022-11-27T18:04:03;6.00;99.90
324;DHT22;149;51.094;17.002;2022-11-27T18:06:31;6.10;99.90
324;DHT22;149;51.094;17.002;2022-11-27T18:08:59;6.00;99.90
324;DHT22;149;51.094;17.002;2022-11-27T18:11:29;6.00;99.90
324;DHT22;149;51.094;17.002;2022-11-27T18:13:56;6.60;99.90
324;DHT22;149;51.094;17.002;2022-11-27T18:16:29;5.90;99.90
324;DHT22;149;51.094;17.002;2022-11-27T18:18:57;6.00;99.90
324;DHT22;149;51.094;17.002;2022-11-27T18:21:25;6.40;99.90
324;DHT22;149;51.094;17.002;2022-11-27T18:23:57;5.90;99.90
324;DHT22;149;51.094;17.002;2022-11-27T18:26:43;5.80;99.90
324;DHT22;149;51.094;17.002;2022-11-27T18:29:33;6.10;99.90
324;DHT22;149;51.094;17.002;2022-11-27T18:32:00;6.00;99.90
324;DHT22;149;51.094;17.002;2022-11-27T18:34:27;5.90;99.90